createdAt,value
2023-05-05T00:02:14.807Z,17.41
2023-05-05T00:04:42.322Z,17.41
2023-05-05T00:07:10.132Z,17.40
2023-05-05T00:09:37.682Z,17.39
2023-05-05T00:12:04.798Z,17.42
2023-05-05T00:14:32.202Z,17.41
2023-05-05T00:16:59.362Z,17.41
2023-05-05T00:19:26.578Z,17.41
2023-05-05T00:21:53.405Z,17.44
2023-05-05T00:24:21.236Z,17.43
2023-05-05T00:26:48.121Z,17.41
2023-05-05T00:29:15.018Z,17.43
2023-05-05T00:31:41.896Z,17.45
2023-05-05T00:34:08.806Z,17.44
2023-05-05T00:36:35.997Z,17.46
2023-05-05T00:39:03.953Z,17.46
2023-05-05T00:41:30.666Z,17.48
2023-05-05T00:43:57.866Z,17.50
2023-05-05T00:46:26.838Z,17.48
2023-05-05T00:48:54.793Z,17.45
2023-05-05T00:51:22.667Z,17.41
2023-05-05T00:53:51.259Z,17.38
2023-05-05T00:56:21.791Z,17.32
2023-05-05T00:58:49.588Z,17.25
2023-05-05T01:01:17.683Z,17.16
2023-05-05T01:03:45.468Z,17.09
2023-05-05T01:06:38.848Z,17.02
2023-05-05T01:09:33.484Z,16.98
2023-05-05T01:12:42.621Z,16.95
2023-05-05T01:15:18.790Z,16.98
2023-05-05T01:18:01.762Z,16.97
2023-05-05T01:20:58.216Z,16.94
2023-05-05T01:24:06.921Z,16.90
2023-05-05T01:27:02.701Z,16.86
2023-05-05T01:29:48.510Z,16.84
2023-05-05T01:32:22.114Z,16.81
2023-05-05T01:34:56.531Z,16.74
2023-05-05T01:37:29.733Z,16.71
2023-05-05T01:40:02.120Z,16.66
2023-05-05T01:42:32.317Z,16.62
2023-05-05T01:45:01.172Z,16.59
2023-05-05T01:47:30.013Z,16.58
2023-05-05T01:49:58.263Z,16.54
2023-05-05T01:52:27.623Z,16.50
2023-05-05T01:54:57.390Z,16.48
2023-05-05T01:57:27.914Z,16.47
2023-05-05T01:59:56.885Z,16.46
2023-05-05T02:02:28.551Z,16.46
2023-05-05T02:04:58.342Z,16.43
2023-05-05T02:07:26.431Z,16.43
2023-05-05T02:09:54.910Z,16.45
2023-05-05T02:12:23.881Z,16.46
2023-05-05T02:14:52.216Z,16.42
2023-05-05T02:17:21.962Z,16.42
2023-05-05T02:19:52.438Z,16.52
2023-05-05T02:22:19.275Z,16.67
2023-05-05T02:24:46.238Z,16.77
2023-05-05T02:27:16.179Z,16.87
2023-05-05T02:29:48.982Z,16.95
2023-05-05T02:32:23.922Z,16.97
2023-05-05T02:34:58.764Z,16.96
2023-05-05T02:37:29.118Z,16.94
2023-05-05T02:40:01.772Z,16.92
2023-05-05T02:42:35.008Z,16.90
2023-05-05T02:45:07.871Z,16.88
2023-05-05T02:47:36.608Z,16.84
2023-05-05T02:50:05.736Z,16.81
2023-05-05T02:52:34.613Z,16.78
2023-05-05T02:55:02.999Z,16.75
2023-05-05T02:57:44.754Z,16.71
2023-05-05T03:00:27.474Z,16.67
2023-05-05T03:03:06.780Z,16.62
2023-05-05T03:05:41.485Z,16.57
2023-05-05T03:08:16.238Z,16.53
2023-05-05T03:11:04.749Z,16.47
2023-05-05T03:13:35.911Z,16.41
2023-05-05T03:16:06.916Z,16.36
2023-05-05T03:18:35.347Z,16.31
2023-05-05T03:21:08.703Z,16.25
2023-05-05T03:23:36.280Z,16.21
2023-05-05T03:26:03.030Z,16.17
2023-05-05T03:28:29.967Z,16.16
2023-05-05T03:30:56.972Z,16.09
2023-05-05T03:33:23.938Z,16.01
2023-05-05T03:35:51.477Z,15.96
2023-05-05T03:38:18.692Z,15.89
2023-05-05T03:40:45.821Z,15.77
2023-05-05T03:43:13.066Z,15.71
2023-05-05T03:45:40.121Z,15.66
2023-05-05T03:48:07.316Z,15.62
2023-05-05T03:50:34.753Z,15.61
2023-05-05T03:53:01.569Z,15.55
2023-05-05T03:55:28.791Z,15.48
2023-05-05T03:57:55.644Z,15.42
2023-05-05T04:00:22.871Z,15.39
2023-05-05T04:02:50.865Z,15.29
2023-05-05T04:05:18.318Z,15.27
2023-05-05T04:07:47.117Z,15.22
2023-05-05T04:10:14.297Z,15.22
2023-05-05T04:12:41.225Z,15.19
2023-05-05T04:15:09.043Z,15.14
2023-05-05T04:17:36.156Z,15.12
2023-05-05T04:20:03.871Z,15.13
2023-05-05T04:22:31.664Z,15.14
2023-05-05T04:24:58.810Z,15.14
2023-05-05T04:27:26.222Z,15.14
2023-05-05T04:29:55.042Z,15.14
2023-05-05T04:32:25.317Z,15.14
2023-05-05T04:34:52.252Z,15.14
2023-05-05T04:37:19.861Z,15.16
2023-05-05T04:39:47.181Z,15.17
2023-05-05T04:42:14.267Z,15.19
2023-05-05T04:44:41.447Z,15.22
2023-05-05T04:47:08.853Z,15.24
2023-05-05T04:49:35.827Z,15.27
2023-05-05T04:52:07.301Z,15.30
2023-05-05T04:54:37.447Z,15.33
2023-05-05T04:57:04.743Z,15.35
2023-05-05T04:59:32.088Z,15.40
2023-05-05T05:01:59.415Z,15.42
2023-05-05T05:04:27.310Z,15.44
2023-05-05T05:06:56.238Z,15.44
2023-05-05T05:09:25.497Z,15.48
2023-05-05T05:11:52.541Z,15.49
2023-05-05T05:14:20.766Z,15.50
2023-05-05T05:16:51.233Z,15.55
2023-05-05T05:19:18.267Z,15.61
2023-05-05T05:21:45.325Z,15.64
2023-05-05T05:24:12.209Z,15.68
2023-05-05T05:26:39.364Z,15.72
2023-05-05T05:29:06.330Z,15.77
2023-05-05T05:31:34.452Z,15.81
2023-05-05T05:34:01.260Z,15.87
2023-05-05T05:36:28.244Z,15.93
2023-05-05T05:38:55.598Z,16.01
2023-05-05T05:41:22.286Z,16.09
2023-05-05T05:43:49.530Z,16.15
2023-05-05T05:46:16.208Z,16.20
2023-05-05T05:48:43.301Z,16.26
2023-05-05T05:51:16.332Z,16.28
2023-05-05T05:53:48.155Z,16.29
2023-05-05T05:56:15.479Z,16.32
2023-05-05T05:58:42.679Z,16.36
2023-05-05T06:01:10.029Z,16.40
2023-05-05T06:03:38.407Z,16.45
2023-05-05T06:06:05.659Z,16.49
2023-05-05T06:08:32.685Z,16.51
2023-05-05T06:11:00.691Z,16.54
2023-05-05T06:13:27.750Z,16.59
2023-05-05T06:15:55.097Z,16.63
2023-05-05T06:18:24.960Z,16.66
2023-05-05T06:20:52.502Z,16.74
2023-05-05T06:23:36.640Z,16.78
2023-05-05T06:26:04.225Z,16.81
2023-05-05T06:28:31.637Z,16.86
2023-05-05T06:30:58.626Z,16.91
2023-05-05T06:33:25.658Z,16.98
2023-05-05T06:35:53.136Z,17.00
2023-05-05T06:38:21.003Z,17.04
2023-05-05T06:40:50.090Z,17.12
2023-05-05T06:43:17.956Z,17.18
2023-05-05T06:45:46.368Z,17.28
2023-05-05T06:48:13.694Z,17.39
2023-05-05T06:50:44.115Z,17.45
2023-05-05T06:53:15.344Z,17.54
2023-05-05T06:55:47.539Z,17.66
2023-05-05T06:58:15.776Z,17.80
2023-05-05T07:00:43.485Z,17.79
2023-05-05T07:03:11.907Z,17.89
2023-05-05T07:05:39.292Z,17.89
2023-05-05T07:08:07.334Z,17.90
2023-05-05T07:10:34.838Z,17.87
2023-05-05T07:13:02.420Z,17.82
2023-05-05T07:15:29.919Z,17.81
2023-05-05T07:17:57.774Z,17.84
2023-05-05T07:20:25.251Z,17.74
2023-05-05T07:22:52.466Z,17.72
2023-05-05T07:25:21.177Z,17.74
2023-05-05T07:27:48.319Z,17.75
2023-05-05T07:30:18.436Z,17.82
2023-05-05T07:32:48.260Z,17.83
2023-05-05T07:35:15.599Z,17.89
2023-05-05T07:37:42.262Z,17.96
2023-05-05T07:40:10.968Z,18.01
2023-05-05T07:42:38.309Z,18.07
2023-05-05T07:45:06.431Z,18.16
2023-05-05T07:47:33.619Z,18.19
2023-05-05T07:50:02.253Z,18.15
2023-05-05T07:52:44.185Z,18.13
2023-05-05T07:55:15.597Z,18.15
2023-05-05T07:57:42.644Z,18.17
2023-05-05T08:00:15.112Z,18.19
2023-05-05T08:02:44.620Z,18.20
2023-05-05T08:05:12.668Z,18.23
2023-05-05T08:07:41.519Z,18.29
2023-05-05T08:10:12.521Z,18.34
2023-05-05T08:12:40.669Z,18.34
2023-05-05T08:15:08.673Z,18.36
2023-05-05T08:17:48.982Z,18.36
2023-05-05T08:20:17.524Z,18.39
2023-05-05T08:22:45.054Z,18.44
2023-05-05T08:25:13.383Z,18.47
2023-05-05T08:27:42.341Z,18.53
2023-05-05T08:30:10.799Z,18.61
2023-05-05T08:32:38.576Z,18.66
2023-05-05T08:35:07.019Z,18.56
2023-05-05T08:37:34.546Z,18.54
2023-05-05T08:40:02.057Z,18.54
2023-05-05T08:42:38.394Z,18.58
2023-05-05T08:45:11.840Z,18.58
2023-05-05T08:47:39.688Z,18.49
2023-05-05T08:50:10.862Z,18.52
2023-05-05T08:52:44.571Z,18.54
2023-05-05T08:55:26.496Z,18.63
2023-05-05T08:57:58.021Z,18.69
2023-05-05T09:00:27.324Z,18.75
2023-05-05T09:02:58.422Z,18.92
2023-05-05T09:05:26.780Z,19.03
2023-05-05T09:07:54.507Z,19.15
2023-05-05T09:10:24.712Z,19.27
2023-05-05T09:12:52.497Z,19.41
2023-05-05T09:15:20.198Z,19.60
2023-05-05T09:17:47.569Z,19.70
2023-05-05T09:20:15.585Z,19.80
2023-05-05T09:22:47.421Z,20.00
2023-05-05T09:25:18.633Z,20.19
2023-05-05T09:27:47.884Z,20.12
2023-05-05T09:30:17.340Z,20.10
2023-05-05T09:32:50.418Z,20.00
2023-05-05T09:35:19.494Z,19.96
2023-05-05T09:37:46.676Z,19.95
2023-05-05T09:40:17.031Z,19.88
2023-05-05T09:42:47.506Z,19.80
2023-05-05T09:45:17.430Z,19.82
2023-05-05T09:47:49.325Z,19.92
2023-05-05T09:50:19.015Z,20.06
2023-05-05T09:53:03.587Z,20.29
2023-05-05T09:55:32.974Z,20.54
2023-05-05T09:58:20.378Z,20.68
2023-05-05T10:00:47.845Z,20.77
2023-05-05T10:03:15.525Z,20.82
2023-05-05T10:05:52.800Z,20.91
2023-05-05T10:08:22.061Z,21.05
2023-05-05T10:11:05.737Z,21.25
2023-05-05T10:13:39.508Z,21.51
2023-05-05T10:16:09.650Z,21.61
2023-05-05T10:18:40.476Z,21.62
2023-05-05T10:21:09.382Z,21.69
2023-05-05T10:23:57.812Z,21.71
2023-05-05T10:26:28.259Z,21.79
2023-05-05T10:29:01.384Z,21.88
2023-05-05T10:31:46.628Z,22.08
2023-05-05T10:34:49.323Z,22.07
2023-05-05T10:37:18.689Z,22.10
2023-05-05T10:39:47.920Z,22.21
2023-05-05T10:42:17.325Z,22.13
2023-05-05T10:44:44.944Z,22.24
2023-05-05T10:47:12.472Z,22.38
2023-05-05T10:50:16.416Z,22.24
2023-05-05T10:52:55.803Z,22.10
2023-05-05T10:55:41.642Z,22.05
2023-05-05T10:58:08.799Z,21.85
2023-05-05T11:00:39.064Z,21.63
2023-05-05T11:03:18.705Z,21.57
2023-05-05T11:06:04.116Z,21.69
2023-05-05T11:08:32.719Z,21.61
2023-05-05T11:11:00.916Z,21.63
2023-05-05T11:13:28.802Z,21.72
2023-05-05T11:15:57.169Z,21.74
2023-05-05T11:18:31.839Z,21.78
2023-05-05T11:20:58.964Z,21.79
2023-05-05T11:23:26.643Z,21.78
2023-05-05T11:25:55.913Z,21.81
2023-05-05T11:28:34.407Z,21.82
2023-05-05T11:31:01.445Z,21.70
2023-05-05T11:33:39.835Z,21.46
2023-05-05T11:36:09.074Z,21.25
2023-05-05T11:38:41.740Z,21.13
2023-05-05T11:41:33.471Z,21.08
2023-05-05T11:44:15.657Z,20.95
2023-05-05T11:46:51.788Z,20.96
2023-05-05T11:49:45.334Z,20.84
2023-05-05T11:52:14.074Z,20.76
2023-05-05T11:54:49.706Z,20.75
2023-05-05T11:57:28.941Z,20.78
2023-05-05T12:00:08.505Z,20.76
2023-05-05T12:02:36.594Z,20.74
2023-05-05T12:05:04.716Z,20.66
2023-05-05T12:07:33.952Z,20.49
2023-05-05T12:10:01.927Z,20.12
2023-05-05T12:12:40.522Z,19.81
2023-05-05T12:15:09.501Z,19.55
2023-05-05T12:17:42.658Z,19.34
2023-05-05T12:20:11.474Z,19.35
2023-05-05T12:22:39.332Z,19.28
2023-05-05T12:25:08.075Z,19.29
2023-05-05T12:27:36.268Z,19.37
2023-05-05T12:30:18.261Z,19.58
2023-05-05T12:32:45.958Z,19.98
2023-05-05T12:35:13.828Z,20.33
2023-05-05T12:37:42.684Z,20.33
2023-05-05T12:40:42.391Z,20.34
2023-05-05T12:43:09.526Z,20.55
2023-05-05T12:45:37.390Z,20.83
2023-05-05T12:48:24.209Z,21.18
2023-05-05T12:50:51.945Z,21.58
2023-05-05T12:53:25.873Z,21.92
2023-05-05T12:55:53.022Z,21.98
2023-05-05T12:58:20.835Z,22.08
2023-05-05T13:01:08.375Z,22.09
2023-05-05T13:03:35.923Z,22.10
2023-05-05T13:06:22.121Z,22.05
2023-05-05T13:08:49.321Z,21.89
2023-05-05T13:11:16.398Z,21.64
2023-05-05T13:13:43.331Z,21.52
2023-05-05T13:16:10.720Z,21.44
2023-05-05T13:18:50.445Z,21.35
2023-05-05T13:21:17.577Z,21.31
2023-05-05T13:23:48.534Z,21.41
2023-05-05T13:26:19.286Z,21.34
2023-05-05T13:28:49.639Z,21.36
2023-05-05T13:31:16.610Z,21.45
2023-05-05T13:33:43.949Z,21.60
2023-05-05T13:36:10.816Z,21.66
2023-05-05T13:38:37.746Z,21.61
2023-05-05T13:41:04.929Z,21.66
2023-05-05T13:43:33.397Z,21.76
2023-05-05T13:46:12.319Z,21.82
2023-05-05T13:48:46.968Z,22.02
2023-05-05T13:51:13.856Z,21.91
2023-05-05T13:53:44.067Z,21.75
2023-05-05T13:56:12.784Z,21.49
2023-05-05T13:58:53.312Z,21.26
2023-05-05T14:01:33.815Z,21.06
2023-05-05T14:04:21.915Z,20.96
2023-05-05T14:07:03.323Z,20.85
2023-05-05T14:09:34.399Z,20.75
2023-05-05T14:12:22.178Z,20.64
2023-05-05T14:14:57.785Z,20.55
2023-05-05T14:17:30.933Z,20.38
2023-05-05T14:20:05.510Z,19.81
2023-05-05T14:22:34.662Z,19.25
2023-05-05T14:25:03.554Z,19.13
2023-05-05T14:27:30.514Z,19.09
2023-05-05T14:30:17.861Z,18.85
2023-05-05T14:32:46.432Z,18.32
2023-05-05T14:35:15.466Z,17.99
2023-05-05T14:37:43.148Z,17.72
2023-05-05T14:40:11.398Z,17.60
2023-05-05T14:42:40.412Z,17.53
2023-05-05T14:45:10.277Z,17.10
2023-05-05T14:47:37.422Z,16.80
2023-05-05T14:50:05.688Z,16.72
2023-05-05T14:52:33.831Z,16.43
2023-05-05T14:55:10.855Z,15.94
2023-05-05T14:57:50.766Z,15.64
2023-05-05T15:00:19.141Z,15.45
2023-05-05T15:02:50.405Z,15.60
2023-05-05T15:05:18.034Z,15.74
2023-05-05T15:07:57.037Z,15.98
2023-05-05T15:10:26.223Z,16.17
2023-05-05T15:13:03.557Z,16.58
2023-05-05T15:18:20.560Z,16.66
2023-05-05T15:20:53.394Z,16.61
2023-05-05T15:23:22.518Z,16.70
2023-05-05T15:25:52.305Z,16.62
2023-05-05T15:28:19.905Z,16.42
2023-05-05T15:30:52.693Z,16.18
2023-05-05T15:33:20.197Z,15.96
2023-05-05T15:35:51.419Z,15.90
2023-05-05T15:38:19.035Z,15.85
2023-05-05T15:40:49.543Z,15.86
2023-05-05T15:43:21.176Z,15.88
2023-05-05T15:45:49.374Z,15.86
2023-05-05T15:48:18.603Z,15.83
2023-05-05T15:50:46.678Z,15.52
2023-05-05T15:53:13.982Z,15.36
2023-05-05T15:55:40.871Z,15.18
2023-05-05T15:58:08.731Z,15.13
2023-05-05T16:00:38.513Z,15.07
2023-05-05T16:03:08.092Z,15.14
2023-05-05T16:05:36.492Z,15.17
2023-05-05T16:08:09.930Z,15.21
2023-05-05T16:10:37.499Z,15.40
2023-05-05T16:13:04.752Z,15.59
2023-05-05T16:15:35.314Z,15.74
2023-05-05T16:18:04.804Z,16.01
2023-05-05T16:20:32.747Z,16.19
2023-05-05T16:23:00.269Z,16.38
2023-05-05T16:25:27.253Z,16.47
2023-05-05T16:27:56.609Z,16.47
2023-05-05T16:30:24.733Z,16.43
2023-05-05T16:32:54.517Z,16.43
2023-05-05T16:35:23.056Z,16.28
2023-05-05T16:37:50.506Z,16.20
2023-05-05T16:40:17.694Z,16.17
2023-05-05T16:42:44.807Z,16.17
2023-05-05T16:45:12.717Z,16.18
2023-05-05T16:47:39.952Z,16.16
2023-05-05T16:50:12.884Z,16.08
2023-05-05T16:52:40.559Z,16.00
2023-05-05T16:55:09.099Z,15.91
2023-05-05T16:57:36.378Z,15.83
2023-05-05T17:00:07.084Z,15.70
2023-05-05T17:02:35.264Z,15.62
2023-05-05T17:05:03.118Z,15.57
2023-05-05T17:07:30.556Z,15.51
2023-05-05T17:09:57.400Z,15.48
2023-05-05T17:12:24.185Z,15.42
2023-05-05T17:14:51.348Z,15.40
2023-05-05T17:17:18.621Z,15.38
2023-05-05T17:19:46.234Z,15.32
2023-05-05T17:22:13.337Z,15.30
2023-05-05T17:24:40.082Z,15.21
2023-05-05T17:27:06.958Z,15.22
2023-05-05T17:29:39.443Z,15.21
2023-05-05T17:32:07.901Z,15.20
2023-05-05T17:34:38.851Z,15.13
2023-05-05T17:37:10.647Z,15.21
2023-05-05T17:39:39.794Z,15.24
2023-05-05T17:42:06.854Z,15.23
2023-05-05T17:44:33.874Z,15.23
2023-05-05T17:47:02.767Z,15.15
2023-05-05T17:49:29.917Z,15.09
2023-05-05T17:52:06.899Z,15.08
2023-05-05T17:54:33.963Z,15.05
2023-05-05T17:57:01.551Z,15.04
2023-05-05T17:59:28.958Z,15.07
2023-05-05T18:01:56.433Z,15.07
2023-05-05T18:04:24.138Z,15.10
2023-05-05T18:06:52.317Z,15.10
2023-05-05T18:09:22.204Z,15.08
2023-05-05T18:11:53.528Z,15.05
2023-05-05T18:14:22.594Z,15.01
2023-05-05T18:16:52.493Z,15.03
2023-05-05T18:19:21.559Z,15.08
2023-05-05T18:21:51.469Z,15.04
2023-05-05T18:24:20.407Z,14.93
2023-05-05T18:26:52.370Z,14.96
2023-05-05T18:29:21.514Z,15.00
2023-05-05T18:31:51.815Z,15.00
2023-05-05T18:34:21.780Z,14.98
2023-05-05T18:36:50.929Z,14.94
2023-05-05T18:39:18.145Z,14.93
2023-05-05T18:41:45.282Z,14.86
2023-05-05T18:44:12.866Z,14.79
2023-05-05T18:46:40.499Z,14.77
2023-05-05T18:49:14.325Z,14.66
2023-05-05T18:51:41.941Z,14.59
2023-05-05T18:54:09.106Z,14.58
2023-05-05T18:56:36.534Z,14.48
2023-05-05T18:59:04.700Z,14.38
2023-05-05T19:01:33.036Z,14.28
2023-05-05T19:04:00.851Z,14.29
2023-05-05T19:06:29.692Z,14.24
2023-05-05T19:08:56.985Z,14.19
2023-05-05T19:11:24.458Z,14.10
2023-05-05T19:13:52.131Z,14.01
2023-05-05T19:16:19.355Z,13.94
2023-05-05T19:18:46.163Z,13.93
2023-05-05T19:21:14.497Z,13.92
2023-05-05T19:23:50.300Z,13.77
2023-05-05T19:26:17.367Z,13.73
2023-05-05T19:28:44.131Z,13.73
2023-05-05T19:31:11.328Z,13.72
2023-05-05T19:33:42.407Z,13.68
2023-05-05T19:36:09.452Z,13.68
2023-05-05T19:38:36.712Z,13.65
2023-05-05T19:41:03.599Z,13.59
2023-05-05T19:43:31.353Z,13.56
2023-05-05T19:45:58.579Z,13.55
2023-05-05T19:48:27.140Z,13.48
2023-05-05T19:50:54.582Z,13.41
2023-05-05T19:53:22.018Z,13.44
2023-05-05T19:55:48.909Z,13.38
2023-05-05T19:58:16.374Z,13.38
2023-05-05T20:00:43.308Z,13.37
2023-05-05T20:03:11.346Z,13.36
2023-05-05T20:05:38.704Z,13.35
2023-05-05T20:08:06.441Z,13.29
2023-05-05T20:10:34.332Z,13.30
2023-05-05T20:13:04.312Z,13.34
2023-05-05T20:15:33.158Z,13.29
2023-05-05T20:18:00.813Z,13.24
2023-05-05T20:20:27.949Z,13.15
2023-05-05T20:22:54.957Z,13.11
2023-05-05T20:25:22.596Z,13.09
2023-05-05T20:27:49.712Z,13.09
2023-05-05T20:30:16.882Z,13.07
2023-05-05T20:32:44.241Z,13.02
2023-05-05T20:35:12.929Z,13.03
2023-05-05T20:37:40.149Z,12.99
2023-05-05T20:40:08.220Z,12.96
2023-05-05T20:42:35.267Z,12.95
2023-05-05T20:45:03.066Z,12.93
2023-05-05T20:47:30.257Z,12.92
2023-05-05T20:49:57.499Z,12.91
2023-05-05T20:52:24.394Z,12.92
2023-05-05T20:54:51.862Z,12.92
2023-05-05T20:57:19.119Z,12.91
2023-05-05T20:59:46.491Z,12.89
2023-05-05T21:02:13.384Z,12.89
2023-05-05T21:04:40.745Z,12.89
2023-05-05T21:07:07.830Z,12.86
2023-05-05T21:09:37.347Z,12.85
2023-05-05T21:12:05.346Z,12.82
2023-05-05T21:14:32.877Z,12.79
2023-05-05T21:16:59.847Z,12.76
2023-05-05T21:19:27.004Z,12.73
2023-05-05T21:21:53.979Z,12.69
2023-05-05T21:24:21.412Z,12.66
2023-05-05T21:26:48.421Z,12.65
2023-05-05T21:29:15.347Z,12.64
2023-05-05T21:31:43.606Z,12.60
2023-05-05T21:34:10.629Z,12.54
2023-05-05T21:36:38.628Z,12.52
2023-05-05T21:39:06.583Z,12.55
2023-05-05T21:41:33.757Z,12.53
2023-05-05T21:44:01.224Z,12.54
2023-05-05T21:46:28.582Z,12.50
2023-05-05T21:48:56.426Z,12.49
2023-05-05T21:51:24.150Z,12.47
2023-05-05T21:53:51.051Z,12.45
2023-05-05T21:56:18.757Z,12.44
2023-05-05T21:58:45.925Z,12.40
2023-05-05T22:01:12.989Z,12.40
2023-05-05T22:03:40.160Z,12.37
2023-05-05T22:06:07.412Z,12.33
2023-05-05T22:08:35.098Z,12.31
2023-05-05T22:11:02.154Z,12.29
2023-05-05T22:13:29.046Z,12.28
2023-05-05T22:15:56.206Z,12.31
2023-05-05T22:18:22.935Z,12.34
2023-05-05T22:20:50.104Z,12.37
2023-05-05T22:23:17.370Z,12.38
2023-05-05T22:25:44.654Z,12.38
2023-05-05T22:28:12.217Z,12.38
2023-05-05T22:30:39.786Z,12.37
2023-05-05T22:33:07.379Z,12.35
2023-05-05T22:35:34.365Z,12.32
2023-05-05T22:38:01.506Z,12.32
2023-05-05T22:40:28.683Z,12.28
2023-05-05T22:42:56.070Z,12.20
2023-05-05T22:45:23.456Z,12.18
2023-05-05T22:47:50.771Z,12.19
2023-05-05T22:50:19.833Z,12.18
2023-05-05T22:52:46.940Z,12.16
2023-05-05T22:55:14.950Z,12.15
2023-05-05T22:57:43.430Z,12.10
2023-05-05T23:00:10.775Z,12.09
2023-05-05T23:02:41.620Z,12.09
2023-05-05T23:05:09.688Z,12.08
2023-05-05T23:07:38.714Z,12.01
2023-05-05T23:10:07.559Z,11.98
2023-05-05T23:12:36.161Z,11.93
2023-05-05T23:15:10.243Z,11.88
2023-05-05T23:17:38.518Z,11.91
2023-05-05T23:20:09.515Z,11.93
2023-05-05T23:22:37.764Z,11.96
2023-05-05T23:25:06.936Z,11.95
2023-05-05T23:27:38.133Z,11.95
2023-05-05T23:30:07.549Z,11.95
2023-05-05T23:32:34.624Z,11.95
2023-05-05T23:35:01.525Z,11.94
2023-05-05T23:37:30.459Z,11.96
2023-05-05T23:39:59.307Z,11.95
2023-05-05T23:42:28.587Z,11.92
2023-05-05T23:44:57.757Z,11.93
2023-05-05T23:47:27.051Z,11.93
2023-05-05T23:49:55.006Z,11.89
2023-05-05T23:52:24.230Z,11.85
2023-05-05T23:54:52.623Z,11.81
2023-05-05T23:57:20.818Z,11.78
2023-05-05T23:59:47.855Z,11.78
